sensor_id;sensor_type;location;lat;lon;timestamp;pressure;altitude;pressure_sealevel;temperature;humidity
62031;BME280;62035;52.094;5.112;2023-05-03T00:01:17;103070.84;;;6.99;100.00
62031;BME280;62035;52.094;5.112;2023-05-03T00:03:45;103065.88;;;6.92;100.00
62031;BME280;62035;52.094;5.112;2023-05-03T00:06:14;103069.03;;;6.81;100.00
62031;BME280;62035;52.094;5.112;2023-05-03T00:08:42;103069.59;;;6.88;100.00
62031;BME280;62035;52.094;5.112;2023-05-03T00:11:10;103069.91;;;7.00;100.00
62031;BME280;62035;52.094;5.112;2023-05-03T00:13:37;103070.81;;;6.81;100.00
62031;BME280;62035;52.094;5.112;2023-05-03T00:16:06;103071.59;;;6.83;100.00
62031;BME280;62035;52.094;5.112;2023-05-03T00:18:34;103068.53;;;6.92;100.00
62031;BME280;62035;52.094;5.112;2023-05-03T00:21:02;103073.47;;;6.81;100.00
62031;BME280;62035;52.094;5.112;2023-05-03T00:23:29;103067.09;;;6.66;100.00
62031;BME280;62035;52.094;5.112;2023-05-03T00:25:57;103074.44;;;6.59;100.00
62031;BME280;62035;52.094;5.112;2023-05-03T00:28:25;103070.59;;;6.66;100.00
62031;BME280;62035;52.094;5.112;2023-05-03T00:30:53;103055.19;;;6.76;100.00
62031;BME280;62035;52.094;5.112;2023-05-03T00:33:21;103062.59;;;6.87;100.00
62031;BME280;62035;52.094;5.112;2023-05-03T00:35:49;103059.81;;;6.90;100.00
62031;BME280;62035;52.094;5.112;2023-05-03T00:38:17;103072.91;;;6.74;100.00
62031;BME280;62035;52.094;5.112;2023-05-03T00:40:44;103069.22;;;6.58;100.00
62031;BME280;62035;52.094;5.112;2023-05-03T00:43:12;103072.19;;;6.71;100.00
62031;BME280;62035;52.094;5.112;2023-05-03T00:45:40;103071.47;;;6.67;100.00
62031;BME280;62035;52.094;5.112;2023-05-03T00:48:11;103072.06;;;6.74;100.00
62031;BME280;62035;52.094;5.112;2023-05-03T00:50:40;103066.44;;;6.61;100.00
62031;BME280;62035;52.094;5.112;2023-05-03T00:53:07;103075.31;;;6.60;100.00
62031;BME280;62035;52.094;5.112;2023-05-03T00:55:35;103066.91;;;6.71;100.00
62031;BME280;62035;52.094;5.112;2023-05-03T00:58:03;103073.72;;;6.56;100.00
62031;BME280;62035;52.094;5.112;2023-05-03T01:00:31;103069.53;;;6.31;100.00
62031;BME280;62035;52.094;5.112;2023-05-03T01:02:58;103074.63;;;6.36;100.00
62031;BME280;62035;52.094;5.112;2023-05-03T01:05:28;103073.53;;;6.40;100.00
62031;BME280;62035;52.094;5.112;2023-05-03T01:08:08;103075.50;;;6.37;100.00
62031;BME280;62035;52.094;5.112;2023-05-03T01:10:47;103075.13;;;6.44;100.00
62031;BME280;62035;52.094;5.112;2023-05-03T01:13:24;103080.97;;;6.32;100.00
62031;BME280;62035;52.094;5.112;2023-05-03T01:16:05;103071.44;;;6.28;100.00
62031;BME280;62035;52.094;5.112;2023-05-03T01:18:39;103086.00;;;6.18;100.00
62031;BME280;62035;52.094;5.112;2023-05-03T01:21:13;103078.06;;;6.18;100.00
62031;BME280;62035;52.094;5.112;2023-05-03T01:23:53;103073.81;;;6.14;100.00
62031;BME280;62035;52.094;5.112;2023-05-03T01:26:26;103076.72;;;6.08;100.00
62031;BME280;62035;52.094;5.112;2023-05-03T01:28:54;103073.44;;;6.23;100.00
62031;BME280;62035;52.094;5.112;2023-05-03T01:31:27;103071.31;;;6.11;100.00
62031;BME280;62035;52.094;5.112;2023-05-03T01:34:16;103072.84;;;6.16;100.00
62031;BME280;62035;52.094;5.112;2023-05-03T01:36:49;103086.25;;;6.12;100.00
62031;BME280;62035;52.094;5.112;2023-05-03T01:39:26;103072.25;;;6.10;100.00
62031;BME280;62035;52.094;5.112;2023-05-03T01:42:04;103071.56;;;6.05;100.00
62031;BME280;62035;52.094;5.112;2023-05-03T01:44:33;103073.63;;;5.98;100.00
62031;BME280;62035;52.094;5.112;2023-05-03T01:47:02;103080.22;;;6.08;100.00
62031;BME280;62035;52.094;5.112;2023-05-03T01:49:30;103069.59;;;6.10;100.00
62031;BME280;62035;52.094;5.112;2023-05-03T01:51:58;103072.13;;;5.92;100.00
62031;BME280;62035;52.094;5.112;2023-05-03T01:54:25;103076.59;;;5.90;100.00
62031;BME280;62035;52.094;5.112;2023-05-03T01:56:53;103068.09;;;5.82;100.00
62031;BME280;62035;52.094;5.112;2023-05-03T01:59:22;103071.41;;;5.87;100.00
62031;BME280;62035;52.094;5.112;2023-05-03T02:01:50;103073.13;;;5.88;100.00
62031;BME280;62035;52.094;5.112;2023-05-03T02:04:17;103066.09;;;5.89;100.00
62031;BME280;62035;52.094;5.112;2023-05-03T02:06:45;103063.94;;;5.77;100.00
62031;BME280;62035;52.094;5.112;2023-05-03T02:09:12;103067.44;;;5.77;100.00
62031;BME280;62035;52.094;5.112;2023-05-03T02:11:40;103059.69;;;5.94;100.00
62031;BME280;62035;52.094;5.112;2023-05-03T02:14:08;103053.03;;;5.84;100.00
62031;BME280;62035;52.094;5.112;2023-05-03T02:16:37;103050.50;;;6.03;100.00
62031;BME280;62035;52.094;5.112;2023-05-03T02:19:05;103047.81;;;5.83;100.00
62031;BME280;62035;52.094;5.112;2023-05-03T02:21:33;103034.69;;;6.01;100.00
62031;BME280;62035;52.094;5.112;2023-05-03T02:24:02;103028.66;;;5.99;100.00
62031;BME280;62035;52.094;5.112;2023-05-03T02:26:30;103007.25;;;5.84;100.00
62031;BME280;62035;52.094;5.112;2023-05-03T02:28:58;103019.44;;;6.08;100.00
62031;BME280;62035;52.094;5.112;2023-05-03T02:31:25;103006.28;;;6.07;100.00
62031;BME280;62035;52.094;5.112;2023-05-03T02:33:54;103010.84;;;6.03;100.00
62031;BME280;62035;52.094;5.112;2023-05-03T02:36:21;103002.63;;;5.68;100.00
62031;BME280;62035;52.094;5.112;2023-05-03T02:38:49;103006.53;;;6.00;100.00
62031;BME280;62035;52.094;5.112;2023-05-03T02:41:17;103012.78;;;5.99;100.00
62031;BME280;62035;52.094;5.112;2023-05-03T02:43:44;103017.28;;;5.97;100.00
62031;BME280;62035;52.094;5.112;2023-05-03T02:46:12;103020.53;;;5.82;100.00
62031;BME280;62035;52.094;5.112;2023-05-03T02:48:39;103030.31;;;5.80;100.00
62031;BME280;62035;52.094;5.112;2023-05-03T02:51:08;103036.66;;;5.76;100.00
62031;BME280;62035;52.094;5.112;2023-05-03T02:53:36;103034.81;;;5.78;100.00
62031;BME280;62035;52.094;5.112;2023-05-03T02:56:04;103033.44;;;5.48;100.00
62031;BME280;62035;52.094;5.112;2023-05-03T02:58:32;103040.38;;;5.50;100.00
62031;BME280;62035;52.094;5.112;2023-05-03T03:01:00;103050.84;;;5.74;100.00
62031;BME280;62035;52.094;5.112;2023-05-03T03:03:27;103059.31;;;5.60;100.00
62031;BME280;62035;52.094;5.112;2023-05-03T03:05:55;103052.16;;;5.42;100.00
62031;BME280;62035;52.094;5.112;2023-05-03T03:08:24;103046.78;;;5.45;100.00
62031;BME280;62035;52.094;5.112;2023-05-03T03:10:51;103049.41;;;5.45;100.00
62031;BME280;62035;52.094;5.112;2023-05-03T03:13:19;103048.06;;;5.34;100.00
62031;BME280;62035;52.094;5.112;2023-05-03T03:15:46;103042.72;;;5.58;100.00
62031;BME280;62035;52.094;5.112;2023-05-03T03:18:14;103037.94;;;5.66;100.00
62031;BME280;62035;52.094;5.112;2023-05-03T03:20:42;103044.56;;;5.76;100.00
62031;BME280;62035;52.094;5.112;2023-05-03T03:23:09;103041.13;;;5.54;100.00
62031;BME280;62035;52.094;5.112;2023-05-03T03:25:40;103036.50;;;5.59;100.00
62031;BME280;62035;52.094;5.112;2023-05-03T03:28:08;103043.03;;;5.50;100.00
62031;BME280;62035;52.094;5.112;2023-05-03T03:30:35;103045.66;;;5.28;100.00
62031;BME280;62035;52.094;5.112;2023-05-03T03:33:03;103047.44;;;5.28;100.00
62031;BME280;62035;52.094;5.112;2023-05-03T03:35:31;103049.59;;;5.40;100.00
62031;BME280;62035;52.094;5.112;2023-05-03T03:37:59;103056.16;;;5.52;100.00
62031;BME280;62035;52.094;5.112;2023-05-03T03:40:27;103053.22;;;5.38;100.00
62031;BME280;62035;52.094;5.112;2023-05-03T03:42:56;103055.91;;;5.14;100.00
62031;BME280;62035;52.094;5.112;2023-05-03T03:45:24;103050.06;;;5.28;100.00
62031;BME280;62035;52.094;5.112;2023-05-03T03:47:51;103052.94;;;5.22;100.00
62031;BME280;62035;52.094;5.112;2023-05-03T03:50:19;103051.44;;;5.38;100.00
62031;BME280;62035;52.094;5.112;2023-05-03T03:52:47;103051.72;;;5.30;100.00
62031;BME280;62035;52.094;5.112;2023-05-03T03:55:14;103065.91;;;5.28;100.00
62031;BME280;62035;52.094;5.112;2023-05-03T03:57:42;103067.09;;;5.43;100.00
62031;BME280;62035;52.094;5.112;2023-05-03T04:00:12;103053.22;;;5.38;100.00
62031;BME280;62035;52.094;5.112;2023-05-03T04:02:40;103064.63;;;5.16;100.00
62031;BME280;62035;52.094;5.112;2023-05-03T04:05:08;103064.13;;;5.07;100.00
62031;BME280;62035;52.094;5.112;2023-05-03T04:07:35;103062.34;;;5.07;100.00
62031;BME280;62035;52.094;5.112;2023-05-03T04:10:04;103067.81;;;5.02;100.00
62031;BME280;62035;52.094;5.112;2023-05-03T04:12:32;103058.09;;;5.03;100.00
62031;BME280;62035;52.094;5.112;2023-05-03T04:15:00;103070.50;;;5.01;100.00
62031;BME280;62035;52.094;5.112;2023-05-03T04:17:28;103071.50;;;5.20;100.00
62031;BME280;62035;52.094;5.112;2023-05-03T04:19:57;103066.19;;;5.44;100.00
62031;BME280;62035;52.094;5.112;2023-05-03T04:22:24;103076.13;;;5.59;100.00
62031;BME280;62035;52.094;5.112;2023-05-03T04:24:52;103075.44;;;5.54;100.00
62031;BME280;62035;52.094;5.112;2023-05-03T04:27:20;103085.19;;;5.30;100.00
62031;BME280;62035;52.094;5.112;2023-05-03T04:29:47;103093.13;;;5.30;100.00
62031;BME280;62035;52.094;5.112;2023-05-03T04:32:15;103103.59;;;5.10;100.00
62031;BME280;62035;52.094;5.112;2023-05-03T04:34:49;103098.91;;;5.40;100.00
62031;BME280;62035;52.094;5.112;2023-05-03T04:37:17;103097.56;;;5.51;100.00
62031;BME280;62035;52.094;5.112;2023-05-03T04:39:45;103109.03;;;5.50;100.00
62031;BME280;62035;52.094;5.112;2023-05-03T04:42:13;103109.59;;;5.36;100.00
62031;BME280;62035;52.094;5.112;2023-05-03T04:44:41;103109.00;;;5.28;100.00
62031;BME280;62035;52.094;5.112;2023-05-03T04:47:09;103113.00;;;5.17;100.00
62031;BME280;62035;52.094;5.112;2023-05-03T04:49:37;103116.00;;;5.29;100.00
62031;BME280;62035;52.094;5.112;2023-05-03T04:52:06;103107.00;;;5.35;100.00
62031;BME280;62035;52.094;5.112;2023-05-03T04:54:35;103113.59;;;5.23;100.00
62031;BME280;62035;52.094;5.112;2023-05-03T04:57:02;103103.84;;;5.25;100.00
62031;BME280;62035;52.094;5.112;2023-05-03T04:59:30;103097.06;;;5.42;100.00
62031;BME280;62035;52.094;5.112;2023-05-03T05:01:58;103102.63;;;5.78;100.00
62031;BME280;62035;52.094;5.112;2023-05-03T05:04:25;103103.03;;;6.51;100.00
62031;BME280;62035;52.094;5.112;2023-05-03T05:06:53;103099.97;;;7.18;100.00
62031;BME280;62035;52.094;5.112;2023-05-03T05:09:23;103090.38;;;7.88;100.00
62031;BME280;62035;52.094;5.112;2023-05-03T05:11:52;103084.63;;;8.64;100.00
62031;BME280;62035;52.094;5.112;2023-05-03T05:14:20;103098.06;;;9.10;100.00
62031;BME280;62035;52.094;5.112;2023-05-03T05:16:47;103087.91;;;9.64;100.00
62031;BME280;62035;52.094;5.112;2023-05-03T05:19:15;103084.28;;;10.11;100.00
62031;BME280;62035;52.094;5.112;2023-05-03T05:21:43;103086.66;;;10.15;100.00
62031;BME280;62035;52.094;5.112;2023-05-03T05:24:10;103094.63;;;10.15;100.00
62031;BME280;62035;52.094;5.112;2023-05-03T05:26:41;103096.25;;;9.58;100.00
62031;BME280;62035;52.094;5.112;2023-05-03T05:29:09;103095.00;;;8.69;100.00
62031;BME280;62035;52.094;5.112;2023-05-03T05:31:36;103103.56;;;8.24;100.00
62031;BME280;62035;52.094;5.112;2023-05-03T05:34:04;103097.19;;;7.57;100.00
62031;BME280;62035;52.094;5.112;2023-05-03T05:36:32;103097.28;;;7.56;100.00
62031;BME280;62035;52.094;5.112;2023-05-03T05:39:00;103101.16;;;7.49;100.00
62031;BME280;62035;52.094;5.112;2023-05-03T05:41:28;103097.06;;;7.42;100.00
62031;BME280;62035;52.094;5.112;2023-05-03T05:43:58;103099.72;;;7.42;100.00
62031;BME280;62035;52.094;5.112;2023-05-03T05:46:26;103100.09;;;7.15;100.00
62031;BME280;62035;52.094;5.112;2023-05-03T05:48:53;103101.47;;;7.60;100.00
62031;BME280;62035;52.094;5.112;2023-05-03T05:51:21;103091.69;;;8.48;100.00
62031;BME280;62035;52.094;5.112;2023-05-03T05:53:48;103094.38;;;9.28;100.00
62031;BME280;62035;52.094;5.112;2023-05-03T05:56:16;103084.56;;;9.76;100.00
62031;BME280;62035;52.094;5.112;2023-05-03T05:58:44;103095.06;;;9.93;100.00
62031;BME280;62035;52.094;5.112;2023-05-03T06:01:15;103099.00;;;10.32;100.00
62031;BME280;62035;52.094;5.112;2023-05-03T06:03:46;103097.59;;;10.69;100.00
62031;BME280;62035;52.094;5.112;2023-05-03T06:06:14;103101.03;;;10.71;100.00
62031;BME280;62035;52.094;5.112;2023-05-03T06:08:41;103092.84;;;11.29;100.00
62031;BME280;62035;52.094;5.112;2023-05-03T06:11:09;103097.19;;;11.18;100.00
62031;BME280;62035;52.094;5.112;2023-05-03T06:13:39;103101.88;;;11.00;100.00
62031;BME280;62035;52.094;5.112;2023-05-03T06:16:06;103099.38;;;11.11;100.00
62031;BME280;62035;52.094;5.112;2023-05-03T06:18:35;103094.25;;;11.08;100.00
62031;BME280;62035;52.094;5.112;2023-05-03T06:21:04;103091.00;;;11.44;100.00
62031;BME280;62035;52.094;5.112;2023-05-03T06:23:31;103089.97;;;11.47;100.00
62031;BME280;62035;52.094;5.112;2023-05-03T06:26:00;103087.00;;;11.10;100.00
62031;BME280;62035;52.094;5.112;2023-05-03T06:28:27;103083.91;;;10.61;100.00
62031;BME280;62035;52.094;5.112;2023-05-03T06:30:55;103076.19;;;10.56;100.00
62031;BME280;62035;52.094;5.112;2023-05-03T06:33:23;103082.75;;;10.65;100.00
62031;BME280;62035;52.094;5.112;2023-05-03T06:35:52;103094.53;;;10.32;100.00
62031;BME280;62035;52.094;5.112;2023-05-03T06:38:21;103087.00;;;10.25;100.00
62031;BME280;62035;52.094;5.112;2023-05-03T06:40:48;103085.28;;;10.24;100.00
62031;BME280;62035;52.094;5.112;2023-05-03T06:43:16;103089.13;;;10.18;100.00
62031;BME280;62035;52.094;5.112;2023-05-03T06:45:45;103087.59;;;10.30;100.00
62031;BME280;62035;52.094;5.112;2023-05-03T06:48:13;103079.53;;;10.16;100.00
62031;BME280;62035;52.094;5.112;2023-05-03T06:50:41;103078.19;;;10.09;100.00
62031;BME280;62035;52.094;5.112;2023-05-03T06:53:09;103088.56;;;10.13;100.00
62031;BME280;62035;52.094;5.112;2023-05-03T06:55:37;103069.84;;;10.15;100.00
62031;BME280;62035;52.094;5.112;2023-05-03T06:58:05;103075.41;;;9.96;100.00
62031;BME280;62035;52.094;5.112;2023-05-03T07:00:35;103065.66;;;9.81;100.00
62031;BME280;62035;52.094;5.112;2023-05-03T07:03:04;103050.31;;;10.00;100.00
62031;BME280;62035;52.094;5.112;2023-05-03T07:05:31;103075.06;;;10.16;100.00
62031;BME280;62035;52.094;5.112;2023-05-03T07:07:59;103061.81;;;10.00;100.00
62031;BME280;62035;52.094;5.112;2023-05-03T07:10:29;103058.31;;;10.30;100.00
62031;BME280;62035;52.094;5.112;2023-05-03T07:12:56;103053.78;;;10.16;100.00
62031;BME280;62035;52.094;5.112;2023-05-03T07:15:24;103056.69;;;10.56;100.00
62031;BME280;62035;52.094;5.112;2023-05-03T07:17:51;103053.47;;;10.51;100.00
62031;BME280;62035;52.094;5.112;2023-05-03T07:20:19;103053.28;;;10.40;100.00
62031;BME280;62035;52.094;5.112;2023-05-03T07:22:47;103048.31;;;10.48;100.00
62031;BME280;62035;52.094;5.112;2023-05-03T07:25:14;103037.78;;;10.75;100.00
62031;BME280;62035;52.094;5.112;2023-05-03T07:27:44;103042.69;;;10.81;100.00
62031;BME280;62035;52.094;5.112;2023-05-03T07:30:12;103033.34;;;11.02;100.00
62031;BME280;62035;52.094;5.112;2023-05-03T07:32:40;103043.66;;;10.80;100.00
62031;BME280;62035;52.094;5.112;2023-05-03T07:35:08;103045.91;;;10.86;100.00
62031;BME280;62035;52.094;5.112;2023-05-03T07:37:36;103036.31;;;10.83;100.00
62031;BME280;62035;52.094;5.112;2023-05-03T07:40:04;103029.63;;;11.05;100.00
62031;BME280;62035;52.094;5.112;2023-05-03T07:42:33;103033.84;;;10.94;100.00
62031;BME280;62035;52.094;5.112;2023-05-03T07:45:02;103015.81;;;11.12;100.00
62031;BME280;62035;52.094;5.112;2023-05-03T07:47:30;103012.72;;;10.91;100.00
62031;BME280;62035;52.094;5.112;2023-05-03T07:50:03;103015.75;;;10.99;100.00
62031;BME280;62035;52.094;5.112;2023-05-03T07:52:34;103027.44;;;10.97;100.00
62031;BME280;62035;52.094;5.112;2023-05-03T07:55:03;103025.75;;;10.96;100.00
62031;BME280;62035;52.094;5.112;2023-05-03T07:57:32;103024.50;;;11.01;100.00
62031;BME280;62035;52.094;5.112;2023-05-03T07:59:59;103027.44;;;11.11;100.00
62031;BME280;62035;52.094;5.112;2023-05-03T08:02:28;103011.25;;;11.14;100.00
62031;BME280;62035;52.094;5.112;2023-05-03T08:04:56;103014.25;;;11.22;100.00
62031;BME280;62035;52.094;5.112;2023-05-03T08:07:23;103016.56;;;11.14;100.00
62031;BME280;62035;52.094;5.112;2023-05-03T08:09:52;103010.56;;;11.38;100.00
62031;BME280;62035;52.094;5.112;2023-05-03T08:12:19;103013.09;;;11.26;100.00
62031;BME280;62035;52.094;5.112;2023-05-03T08:14:47;103008.88;;;11.36;100.00
62031;BME280;62035;52.094;5.112;2023-05-03T08:17:14;103000.38;;;11.44;100.00
62031;BME280;62035;52.094;5.112;2023-05-03T08:19:43;102997.75;;;11.57;100.00
62031;BME280;62035;52.094;5.112;2023-05-03T08:22:11;102995.88;;;11.45;100.00
62031;BME280;62035;52.094;5.112;2023-05-03T08:24:38;102988.69;;;11.72;100.00
62031;BME280;62035;52.094;5.112;2023-05-03T08:27:07;102994.97;;;11.71;100.00
62031;BME280;62035;52.094;5.112;2023-05-03T08:29:37;102995.81;;;11.98;100.00
62031;BME280;62035;52.094;5.112;2023-05-03T08:32:05;102995.69;;;12.13;100.00
62031;BME280;62035;52.094;5.112;2023-05-03T08:34:32;102998.03;;;12.05;100.00
62031;BME280;62035;52.094;5.112;2023-05-03T08:37:02;103002.31;;;12.32;100.00
62031;BME280;62035;52.094;5.112;2023-05-03T08:39:30;102998.56;;;12.35;100.00
62031;BME280;62035;52.094;5.112;2023-05-03T08:41:58;103004.66;;;12.12;100.00
62031;BME280;62035;52.094;5.112;2023-05-03T08:44:28;103003.28;;;12.31;100.00
62031;BME280;62035;52.094;5.112;2023-05-03T08:46:57;103005.41;;;12.26;100.00
62031;BME280;62035;52.094;5.112;2023-05-03T08:49:26;103004.94;;;12.45;100.00
62031;BME280;62035;52.094;5.112;2023-05-03T08:51:55;103001.31;;;12.46;100.00
62031;BME280;62035;52.094;5.112;2023-05-03T08:54:26;103006.78;;;12.32;100.00
62031;BME280;62035;52.094;5.112;2023-05-03T08:56:53;103007.81;;;12.42;100.00
62031;BME280;62035;52.094;5.112;2023-05-03T08:59:21;103009.31;;;12.59;100.00
62031;BME280;62035;52.094;5.112;2023-05-03T09:01:49;103004.09;;;12.45;100.00
62031;BME280;62035;52.094;5.112;2023-05-03T09:04:17;103002.91;;;12.49;100.00
62031;BME280;62035;52.094;5.112;2023-05-03T09:06:44;103007.91;;;12.66;100.00
62031;BME280;62035;52.094;5.112;2023-05-03T09:09:12;103010.63;;;12.90;100.00
62031;BME280;62035;52.094;5.112;2023-05-03T09:11:42;103003.66;;;12.63;100.00
62031;BME280;62035;52.094;5.112;2023-05-03T09:14:11;103023.69;;;12.82;100.00
62031;BME280;62035;52.094;5.112;2023-05-03T09:16:41;103014.59;;;12.84;100.00
62031;BME280;62035;52.094;5.112;2023-05-03T09:19:11;103015.38;;;12.74;100.00
62031;BME280;62035;52.094;5.112;2023-05-03T09:21:41;103002.47;;;13.04;100.00
62031;BME280;62035;52.094;5.112;2023-05-03T09:24:13;103009.66;;;13.27;100.00
62031;BME280;62035;52.094;5.112;2023-05-03T09:26:43;102996.78;;;13.32;100.00
62031;BME280;62035;52.094;5.112;2023-05-03T09:29:26;103005.41;;;13.60;100.00
62031;BME280;62035;52.094;5.112;2023-05-03T09:31:58;103005.41;;;13.60;100.00
62031;BME280;62035;52.094;5.112;2023-05-03T09:34:26;103003.91;;;13.21;100.00
62031;BME280;62035;52.094;5.112;2023-05-03T09:36:54;102998.16;;;13.38;100.00
62031;BME280;62035;52.094;5.112;2023-05-03T09:39:21;103005.91;;;13.54;100.00
62031;BME280;62035;52.094;5.112;2023-05-03T09:41:50;103007.38;;;13.58;100.00
62031;BME280;62035;52.094;5.112;2023-05-03T09:44:18;103001.91;;;13.59;100.00
62031;BME280;62035;52.094;5.112;2023-05-03T09:47:02;102997.88;;;13.65;100.00
62031;BME280;62035;52.094;5.112;2023-05-03T09:49:31;103005.63;;;13.81;100.00
62031;BME280;62035;52.094;5.112;2023-05-03T09:51:59;103002.81;;;13.82;100.00
62031;BME280;62035;52.094;5.112;2023-05-03T09:54:28;102991.44;;;14.14;98.23
62031;BME280;62035;52.094;5.112;2023-05-03T09:56:59;102991.53;;;14.01;94.14
62031;BME280;62035;52.094;5.112;2023-05-03T09:59:27;102982.28;;;13.94;97.39
62031;BME280;62035;52.094;5.112;2023-05-03T10:01:56;102990.94;;;14.09;97.33
62031;BME280;62035;52.094;5.112;2023-05-03T10:04:27;102988.38;;;14.07;95.41
62031;BME280;62035;52.094;5.112;2023-05-03T10:07:01;102984.13;;;13.93;95.58
62031;BME280;62035;52.094;5.112;2023-05-03T10:09:35;102975.13;;;14.28;94.10
62031;BME280;62035;52.094;5.112;2023-05-03T10:12:09;102984.78;;;14.64;90.48
62031;BME280;62035;52.094;5.112;2023-05-03T10:14:39;102980.75;;;14.47;89.12
62031;BME280;62035;52.094;5.112;2023-05-03T10:17:12;102982.56;;;14.58;88.10
62031;BME280;62035;52.094;5.112;2023-05-03T10:19:50;102974.78;;;14.44;87.84
62031;BME280;62035;52.094;5.112;2023-05-03T10:22:21;102988.31;;;14.64;85.94
62031;BME280;62035;52.094;5.112;2023-05-03T10:25:10;102987.63;;;14.94;81.76
62031;BME280;62035;52.094;5.112;2023-05-03T10:27:49;102977.91;;;15.25;78.17
62031;BME280;62035;52.094;5.112;2023-05-03T10:30:29;102981.53;;;14.92;79.91
62031;BME280;62035;52.094;5.112;2023-05-03T10:32:57;102978.50;;;14.86;78.75
62031;BME280;62035;52.094;5.112;2023-05-03T10:35:27;102970.50;;;15.18;77.87
62031;BME280;62035;52.094;5.112;2023-05-03T10:37:55;102971.44;;;15.28;76.92
62031;BME280;62035;52.094;5.112;2023-05-03T10:40:40;102977.00;;;15.04;76.90
62031;BME280;62035;52.094;5.112;2023-05-03T10:43:43;102963.50;;;15.26;75.00
62031;BME280;62035;52.094;5.112;2023-05-03T10:46:34;102959.22;;;15.35;75.79
62031;BME280;62035;52.094;5.112;2023-05-03T10:49:18;102962.69;;;15.47;74.62
62031;BME280;62035;52.094;5.112;2023-05-03T10:51:47;102965.72;;;15.21;76.50
62031;BME280;62035;52.094;5.112;2023-05-03T10:54:14;102966.03;;;15.39;74.16
62031;BME280;62035;52.094;5.112;2023-05-03T10:56:54;102948.28;;;15.59;73.95
62031;BME280;62035;52.094;5.112;2023-05-03T10:59:23;102944.66;;;15.90;74.33
62031;BME280;62035;52.094;5.112;2023-05-03T11:01:52;102955.78;;;15.65;72.01
62031;BME280;62035;52.094;5.112;2023-05-03T11:04:34;102933.25;;;15.98;72.19
62031;BME280;62035;52.094;5.112;2023-05-03T11:07:08;102940.66;;;16.15;69.99
62031;BME280;62035;52.094;5.112;2023-05-03T11:09:35;102940.84;;;16.63;69.00
62031;BME280;62035;52.094;5.112;2023-05-03T11:12:05;102931.69;;;16.66;67.90
62031;BME280;62035;52.094;5.112;2023-05-03T11:14:34;102920.69;;;16.48;68.77
62031;BME280;62035;52.094;5.112;2023-05-03T11:17:04;102884.88;;;16.78;67.16
62031;BME280;62035;52.094;5.112;2023-05-03T11:19:32;102924.84;;;16.62;61.74
62031;BME280;62035;52.094;5.112;2023-05-03T11:22:00;102919.47;;;16.62;60.08
62031;BME280;62035;52.094;5.112;2023-05-03T11:24:28;102925.44;;;16.65;62.01
62031;BME280;62035;52.094;5.112;2023-05-03T11:26:56;102925.91;;;16.90;60.53
62031;BME280;62035;52.094;5.112;2023-05-03T11:29:23;102919.53;;;17.29;62.63
62031;BME280;62035;52.094;5.112;2023-05-03T11:31:54;102918.97;;;17.26;62.98
62031;BME280;62035;52.094;5.112;2023-05-03T11:34:22;102896.59;;;17.35;62.03
62031;BME280;62035;52.094;5.112;2023-05-03T11:36:50;102902.75;;;17.84;61.23
62031;BME280;62035;52.094;5.112;2023-05-03T11:39:18;102915.91;;;17.96;60.13
62031;BME280;62035;52.094;5.112;2023-05-03T11:42:00;102906.44;;;18.20;57.78
62031;BME280;62035;52.094;5.112;2023-05-03T11:44:29;102907.13;;;17.94;55.99
62031;BME280;62035;52.094;5.112;2023-05-03T11:46:58;102901.72;;;18.49;54.53
62031;BME280;62035;52.094;5.112;2023-05-03T11:49:26;102906.50;;;18.38;52.19
62031;BME280;62035;52.094;5.112;2023-05-03T11:51:54;102893.47;;;18.60;51.77
62031;BME280;62035;52.094;5.112;2023-05-03T11:54:22;102889.38;;;18.29;53.02
62031;BME280;62035;52.094;5.112;2023-05-03T11:56:53;102896.41;;;18.03;54.82
62031;BME280;62035;52.094;5.112;2023-05-03T11:59:33;102885.59;;;18.67;53.33
62031;BME280;62035;52.094;5.112;2023-05-03T12:02:03;102880.59;;;18.72;53.32
62031;BME280;62035;52.094;5.112;2023-05-03T12:04:32;102878.66;;;19.00;52.15
62031;BME280;62035;52.094;5.112;2023-05-03T12:07:01;102877.84;;;19.25;49.84
62031;BME280;62035;52.094;5.112;2023-05-03T12:09:29;102876.84;;;18.55;51.29
62031;BME280;62035;52.094;5.112;2023-05-03T12:11:57;102864.19;;;18.65;51.90
62031;BME280;62035;52.094;5.112;2023-05-03T12:14:25;102861.78;;;19.16;49.85
62031;BME280;62035;52.094;5.112;2023-05-03T12:16:54;102860.63;;;19.44;49.58
62031;BME280;62035;52.094;5.112;2023-05-03T12:19:26;102847.94;;;19.62;48.61
62031;BME280;62035;52.094;5.112;2023-05-03T12:21:54;102853.91;;;19.48;47.09
62031;BME280;62035;52.094;5.112;2023-05-03T12:24:22;102841.91;;;18.81;49.32
62031;BME280;62035;52.094;5.112;2023-05-03T12:26:51;102851.00;;;19.68;47.17
62031;BME280;62035;52.094;5.112;2023-05-03T12:29:19;102844.50;;;20.20;45.96
62031;BME280;62035;52.094;5.112;2023-05-03T12:31:46;102834.13;;;20.08;46.35
62031;BME280;62035;52.094;5.112;2023-05-03T12:34:14;102848.72;;;19.81;45.79
62031;BME280;62035;52.094;5.112;2023-05-03T12:36:43;102837.81;;;19.64;46.44
62031;BME280;62035;52.094;5.112;2023-05-03T12:39:11;102838.81;;;19.38;46.94
62031;BME280;62035;52.094;5.112;2023-05-03T12:41:39;102825.34;;;19.20;47.44
62031;BME280;62035;52.094;5.112;2023-05-03T12:44:07;102830.03;;;19.36;46.78
62031;BME280;62035;52.094;5.112;2023-05-03T12:46:34;102828.16;;;19.36;45.68
62031;BME280;62035;52.094;5.112;2023-05-03T12:49:02;102819.22;;;19.36;46.01
62031;BME280;62035;52.094;5.112;2023-05-03T12:51:29;102815.69;;;19.61;46.22
62031;BME280;62035;52.094;5.112;2023-05-03T12:53:58;102811.69;;;19.73;45.66
62031;BME280;62035;52.094;5.112;2023-05-03T12:56:26;102810.41;;;19.51;46.07
62031;BME280;62035;52.094;5.112;2023-05-03T12:58:53;102806.63;;;19.70;45.59